Time;durP1;ratioP1;P1;durP2;ratioP2;P2;SDS_P1;SDS_P2;PMS_P1;PMS_P2;Temp;Humidity;BMP_temperature;BMP_pressure;BME280_temperature;BME280_humidity;BME280_pressure;Samples;Min_cycle;Max_cycle;Signal;HPM_P1;HPM_P2
2023/02/10 00:02:25;;;;;;;27.55;18.35;;;2.00;99.90;;;;;;5037413;28;20039;-94
2023/02/10 00:04:53;;;;;;;28.17;18.58;;;1.80;99.90;;;;;;5018859;28;20106;-94
2023/02/10 00:07:19;;;;;;;27.70;18.77;;;2.30;99.90;;;;;;5019885;28;20120;-94
2023/02/10 00:09:44;;;;;;;28.40;18.00;;;2.20;99.90;;;;;;5019337;28;20053;-94
2023/02/10 00:12:11;;;;;;;29.00;19.73;;;2.10;99.90;;;;;;5019558;28;20116;-95
2023/02/10 00:14:37;;;;;;;27.13;18.00;;;2.50;99.90;;;;;;5037037;28;20033;-94
2023/02/10 00:17:03;;;;;;;26.05;17.60;;;1.80;99.90;;;;;;5036801;28;20060;-94
2023/02/10 00:19:30;;;;;;;33.97;19.27;;;1.90;99.90;;;;;;5036750;28;20043;-94
2023/02/10 00:21:57;;;;;;;28.70;20.00;;;1.80;99.90;;;;;;5038169;28;20064;-94
2023/02/10 00:24:23;;;;;;;36.83;23.63;;;1.80;99.90;;;;;;5060169;28;20040;-94
2023/02/10 00:26:49;;;;;;;35.58;22.52;;;2.20;99.90;;;;;;5056680;28;20030;-94
2023/02/10 00:29:14;;;;;;;35.28;22.52;;;2.20;99.90;;;;;;5018900;28;20033;-94
2023/02/10 00:31:40;;;;;;;31.58;19.05;;;2.10;99.90;;;;;;5020451;28;20058;-94
2023/02/10 00:34:06;;;;;;;27.13;17.25;;;1.80;99.90;;;;;;5020711;28;20025;-94
2023/02/10 00:36:32;;;;;;;26.77;17.83;;;2.10;99.90;;;;;;5019735;28;20083;-94
2023/02/10 00:38:58;;;;;;;28.30;17.65;;;1.70;99.90;;;;;;5039695;28;20022;-94
2023/02/10 00:41:24;;;;;;;26.98;18.08;;;1.60;99.90;;;;;;5044071;28;20482;-94
2023/02/10 00:43:50;;;;;;;31.25;19.77;;;1.20;99.90;;;;;;5025559;28;20029;-95
2023/02/10 00:46:18;;;;;;;32.60;20.40;;;1.40;99.90;;;;;;5020384;28;20032;-94
2023/02/10 00:48:44;;;;;;;35.00;21.58;;;1.20;99.90;;;;;;5036165;28;20072;-94
2023/02/10 00:51:10;;;;;;;33.83;20.85;;;1.40;99.90;;;;;;5036127;28;20425;-94
2023/02/10 00:53:35;;;;;;;28.63;19.83;;;1.30;99.90;;;;;;5018724;28;20116;-95
2023/02/10 00:56:02;;;;;;;32.25;19.88;;;1.80;99.90;;;;;;5018412;28;20129;-94
2023/02/10 00:58:28;;;;;;;30.67;19.23;;;1.50;99.90;;;;;;5018450;28;20032;-94
2023/02/10 01:00:54;;;;;;;26.95;18.58;;;1.40;99.90;;;;;;5036379;28;20486;-94
2023/02/10 01:03:20;;;;;;;28.35;18.83;;;1.80;99.90;;;;;;5035649;28;20018;-94
2023/02/10 01:05:46;;;;;;;31.20;18.42;;;1.70;99.90;;;;;;5035853;28;20550;-94
2023/02/10 01:08:13;;;;;;;29.35;19.73;;;1.50;99.90;;;;;;5036109;28;20053;-94
2023/02/10 01:10:39;;;;;;;27.67;18.55;;;1.90;99.90;;;;;;5018345;28;20026;-94
2023/02/10 01:13:06;;;;;;;28.58;18.45;;;1.30;99.90;;;;;;5035976;28;20022;-95
2023/02/10 01:15:32;;;;;;;28.88;17.73;;;1.80;99.90;;;;;;5035860;28;20485;-94
2023/02/10 01:17:58;;;;;;;26.20;17.08;;;1.00;99.90;;;;;;5018341;28;20021;-94
2023/02/10 01:20:24;;;;;;;27.88;17.05;;;0.90;99.90;;;;;;5035859;28;20079;-94
2023/02/10 01:22:50;;;;;;;25.77;17.30;;;1.10;99.90;;;;;;5018072;28;20025;-94
2023/02/10 01:25:16;;;;;;;25.48;17.85;;;0.90;99.90;;;;;;5036030;28;20492;-94
2023/02/10 01:27:41;;;;;;;26.98;18.13;;;1.20;99.90;;;;;;5035828;28;20029;-94
2023/02/10 01:30:08;;;;;;;30.55;19.23;;;0.90;99.90;;;;;;5035592;28;20045;-94
2023/02/10 01:32:33;;;;;;;29.30;18.85;;;0.80;99.90;;;;;;5035489;28;20022;-94
2023/02/10 01:34:59;;;;;;;27.95;19.20;;;1.20;99.90;;;;;;5018358;28;20025;-94
2023/02/10 01:37:25;;;;;;;27.75;18.67;;;1.30;99.90;;;;;;5018239;28;20040;-94
2023/02/10 01:39:50;;;;;;;28.60;18.77;;;0.70;99.90;;;;;;5018292;28;20051;-94
2023/02/10 01:42:16;;;;;;;35.28;19.40;;;1.10;99.90;;;;;;5018827;28;20025;-95
2023/02/10 01:44:42;;;;;;;27.58;18.85;;;0.70;99.90;;;;;;5039122;28;20029;-93
2023/02/10 01:47:08;;;;;;;26.77;18.63;;;1.00;99.90;;;;;;5039764;28;20029;-95
2023/02/10 01:49:40;;;;;;;29.73;19.25;;;0.80;99.90;;;;;;5040344;28;20496;-93
2023/02/10 01:52:17;;;;;;;30.45;18.85;;;0.80;99.90;;;;;;5039283;28;20021;-94
2023/02/10 01:54:51;;;;;;;28.00;19.23;;;1.00;99.90;;;;;;5020478;28;20033;-94
2023/02/10 01:57:17;;;;;;;28.08;17.73;;;0.90;99.90;;;;;;5036222;28;20063;-95
2023/02/10 01:59:43;;;;;;;29.63;18.63;;;1.40;99.90;;;;;;5017356;28;20021;-94
2023/02/10 02:02:11;;;;;;;27.88;18.42;;;1.20;99.90;;;;;;5035101;28;20543;-94
2023/02/10 02:04:52;;;;;;;32.92;19.23;;;1.00;99.90;;;;;;5035498;28;20024;-94
2023/02/10 02:07:21;;;;;;;28.60;18.00;;;1.00;99.90;;;;;;5035331;28;20152;-94
2023/02/10 02:09:47;;;;;;;28.38;19.00;;;1.20;99.90;;;;;;5017484;28;20029;-95
2023/02/10 02:12:25;;;;;;;26.63;18.83;;;1.50;99.90;;;;;;5017339;28;20386;-94
2023/02/10 02:14:57;;;;;;;30.95;18.40;;;0.90;99.90;;;;;;5034639;28;20021;-94
2023/02/10 02:17:32;;;;;;;28.55;18.92;;;1.20;99.90;;;;;;5017098;28;20515;-94
2023/02/10 02:20:40;;;;;;;29.00;18.08;;;0.50;99.90;;;;;;5034719;28;20072;-94
2023/02/10 02:23:42;;;;;;;28.15;18.65;;;0.30;99.90;;;;;;5016793;28;20124;-94
2023/02/10 02:26:41;;;;;;;30.65;19.92;;;0.40;99.90;;;;;;5034744;28;20033;-94
2023/02/10 02:29:21;;;;;;;31.05;19.15;;;0.60;99.90;;;;;;4954918;29;20036;-94
2023/02/10 02:32:16;;;;;;;31.90;18.92;;;0.50;99.90;;;;;;4938534;29;20051;-94
2023/02/10 02:35:00;;;;;;;29.35;19.48;;;0.60;99.90;;;;;;4954757;29;20035;-94
2023/02/10 02:37:31;;;;;;;30.33;17.92;;;0.40;99.90;;;;;;4938670;29;20456;-95
2023/02/10 02:39:57;;;;;;;29.88;19.50;;;0.20;99.90;;;;;;4954716;29;20443;-94
2023/02/10 02:42:31;;;;;;;28.20;18.60;;;0.10;99.90;;;;;;4954873;29;20039;-94
2023/02/10 02:45:12;;;;;;;28.60;18.27;;;0.20;99.90;;;;;;4948633;29;20043;-93
2023/02/10 02:47:46;;;;;;;29.73;19.10;;;0.20;99.90;;;;;;4975213;29;20030;-93
2023/02/10 02:50:22;;;;;;;28.05;17.65;;;0.10;99.90;;;;;;4963002;29;20549;-94
2023/02/10 02:53:04;;;;;;;31.85;18.40;;;0.10;99.90;;;;;;4956418;29;20050;-94
2023/02/10 02:55:48;;;;;;;33.03;18.77;;;0.00;99.90;;;;;;4957686;29;20027;-94
2023/02/10 02:58:44;;;;;;;32.42;19.38;;;0.20;99.90;;;;;;4959375;29;20507;-94
2023/02/10 03:01:14;;;;;;;31.48;18.92;;;0.10;99.90;;;;;;4883951;29;20067;-94
2023/02/10 03:03:41;;;;;;;28.05;18.73;;;0.10;99.90;;;;;;4881458;29;20033;-93
2023/02/10 03:06:07;;;;;;;29.77;18.83;;;0.30;99.90;;;;;;4928183;28;20069;-94
2023/02/10 03:08:36;;;;;;;29.30;18.85;;;0.60;99.90;;;;;;4954997;29;20035;-94
2023/02/10 03:11:01;;;;;;;27.27;18.60;;;0.60;99.90;;;;;;4953733;29;20027;-94
2023/02/10 03:13:27;;;;;;;30.98;19.45;;;0.40;99.90;;;;;;4954282;29;20373;-94
2023/02/10 03:15:52;;;;;;;31.17;20.00;;;0.40;99.90;;;;;;4954130;29;20035;-94
2023/02/10 03:18:18;;;;;;;28.45;20.17;;;0.70;99.90;;;;;;4953735;29;20043;-92
2023/02/10 03:20:44;;;;;;;30.60;19.63;;;0.40;99.90;;;;;;4953771;29;20027;-94
2023/02/10 03:23:10;;;;;;;31.90;19.70;;;0.20;99.90;;;;;;4953878;29;20031;-94
2023/02/10 03:25:36;;;;;;;30.67;20.98;;;0.90;99.90;;;;;;4937723;29;20080;-94
2023/02/10 03:28:02;;;;;;;28.33;20.52;;;0.80;99.90;;;;;;4953803;29;20031;-94
2023/02/10 03:30:28;;;;;;;28.30;19.20;;;0.20;99.90;;;;;;4954056;29;20118;-95
2023/02/10 03:32:53;;;;;;;30.98;19.98;;;0.80;99.90;;;;;;4953646;29;20443;-94
2023/02/10 03:35:20;;;;;;;32.58;20.65;;;0.50;99.90;;;;;;4937670;29;20030;-94
2023/02/10 03:37:46;;;;;;;32.88;20.58;;;0.10;99.90;;;;;;4971611;28;20042;-94
2023/02/10 03:40:12;;;;;;;32.38;21.35;;;0.60;99.90;;;;;;5016112;28;20052;-94
2023/02/10 03:42:38;;;;;;;32.47;20.77;;;-0.10;99.90;;;;;;5015587;28;20033;-94
2023/02/10 03:45:04;;;;;;;29.52;20.35;;;0.00;99.90;;;;;;5033529;28;20037;-93
2023/02/10 03:47:29;;;;;;;31.98;21.35;;;0.30;99.90;;;;;;5033664;28;20052;-93
2023/02/10 03:49:55;;;;;;;29.52;19.50;;;0.10;99.90;;;;;;5016219;28;20053;-94
2023/02/10 03:52:21;;;;;;;33.33;21.08;;;0.50;99.90;;;;;;5033499;28;20025;-94
2023/02/10 03:54:47;;;;;;;30.80;21.40;;;0.60;99.90;;;;;;5033551;28;20034;-94
2023/02/10 03:57:12;;;;;;;34.90;21.25;;;-0.20;99.90;;;;;;5033252;28;20440;-94
2023/02/10 03:59:38;;;;;;;33.35;21.20;;;-0.20;99.90;;;;;;5033502;28;20029;-93
2023/02/10 04:02:04;;;;;;;30.10;19.52;;;0.00;99.90;;;;;;5033675;28;20055;-94
2023/02/10 04:04:30;;;;;;;34.60;21.45;;;0.00;99.90;;;;;;5034296;28;20565;-95
2023/02/10 04:06:55;;;;;;;33.60;20.88;;;0.00;99.90;;;;;;5035946;28;20108;-94
2023/02/10 04:09:21;;;;;;;33.42;21.05;;;0.20;99.90;;;;;;5039451;28;20021;-94
2023/02/10 04:11:46;;;;;;;32.38;20.27;;;0.60;99.90;;;;;;5021100;28;20036;-93
2023/02/10 04:14:12;;;;;;;32.30;20.73;;;0.40;99.90;;;;;;5021318;28;20030;-94
2023/02/10 04:16:38;;;;;;;32.92;21.00;;;-0.10;99.90;;;;;;5018436;28;20037;-93
2023/02/10 04:19:03;;;;;;;36.10;22.73;;;-0.30;99.90;;;;;;5021458;28;20026;-93
2023/02/10 04:21:29;;;;;;;39.80;24.10;;;-0.20;99.90;;;;;;5019687;28;20088;-94
2023/02/10 04:23:55;;;;;;;33.85;22.58;;;0.00;99.90;;;;;;5019261;28;20026;-94
2023/02/10 04:26:21;;;;;;;37.80;23.40;;;-0.30;99.90;;;;;;5036736;28;20048;-94
2023/02/10 04:28:48;;;;;;;39.55;23.45;;;0.10;99.90;;;;;;5019072;28;20033;-94
2023/02/10 04:31:13;;;;;;;33.80;22.10;;;-0.40;99.90;;;;;;5036408;28;20132;-93
2023/02/10 04:33:39;;;;;;;31.98;20.77;;;0.20;99.90;;;;;;5018996;28;20112;-94
2023/02/10 04:36:05;;;;;;;30.65;21.35;;;-0.50;99.90;;;;;;5036587;28;20693;-94
2023/02/10 04:38:31;;;;;;;38.58;21.30;;;-0.60;99.90;;;;;;5037079;28;20025;-92
2023/02/10 04:40:57;;;;;;;34.13;21.27;;;-0.70;99.90;;;;;;5036454;28;20025;-94
2023/02/10 04:43:22;;;;;;;35.22;23.02;;;-0.70;99.90;;;;;;5018875;28;20072;-95
2023/02/10 04:45:48;;;;;;;34.88;22.42;;;-0.50;99.90;;;;;;5036422;28;20026;-94
2023/02/10 04:48:14;;;;;;;32.03;21.55;;;-0.60;99.90;;;;;;5036277;28;20037;-94
2023/02/10 04:50:40;;;;;;;33.08;22.08;;;-0.70;99.90;;;;;;5019134;28;20024;-94
2023/02/10 04:53:06;;;;;;;31.17;20.33;;;-0.60;99.90;;;;;;5018730;28;20033;-95
2023/02/10 04:55:33;;;;;;;35.85;21.88;;;-0.50;99.90;;;;;;5036049;28;20022;-94
2023/02/10 04:57:58;;;;;;;34.30;22.67;;;-0.60;99.90;;;;;;5018704;28;20116;-94
2023/02/10 05:00:24;;;;;;;37.92;22.55;;;-0.30;99.90;;;;;;5018548;28;20053;-94
2023/02/10 05:02:50;;;;;;;35.10;22.17;;;-0.70;99.90;;;;;;5018512;28;20034;-93
2023/02/10 05:05:16;;;;;;;36.17;22.63;;;-0.70;99.90;;;;;;5018732;28;20530;-94
2023/02/10 05:07:41;;;;;;;35.33;23.30;;;-0.60;99.90;;;;;;5036350;28;20505;-93
2023/02/10 05:10:07;;;;;;;39.55;22.95;;;-0.80;99.90;;;;;;5038025;28;20022;-94
2023/02/10 05:12:33;;;;;;;38.30;25.08;;;-0.10;99.90;;;;;;5058200;28;20021;-94
2023/02/10 05:14:58;;;;;;;40.22;24.33;;;-0.60;99.90;;;;;;5048185;28;20029;-94
2023/02/10 05:17:24;;;;;;;39.50;25.80;;;-0.50;99.90;;;;;;5037089;28;20405;-94
2023/02/10 05:19:49;;;;;;;37.08;24.48;;;-0.50;99.90;;;;;;5022064;28;20033;-94
2023/02/10 05:22:15;;;;;;;37.78;24.38;;;-0.50;99.90;;;;;;5041926;28;20026;-94
2023/02/10 05:24:41;;;;;;;34.40;23.13;;;-0.40;99.90;;;;;;5041073;28;20075;-94
2023/02/10 05:27:07;;;;;;;35.22;22.15;;;-0.40;99.90;;;;;;5040795;28;20419;-94
2023/02/10 05:29:33;;;;;;;39.33;23.30;;;-0.30;99.90;;;;;;5037508;28;20025;-94
2023/02/10 05:31:59;;;;;;;36.63;22.95;;;-0.50;99.90;;;;;;5020568;28;20099;-94
2023/02/10 05:34:26;;;;;;;33.75;22.48;;;-0.60;99.90;;;;;;5018198;28;20032;-94
2023/02/10 05:36:52;;;;;;;36.03;22.65;;;-0.60;99.90;;;;;;5035547;28;20033;-95
2023/02/10 05:39:23;;;;;;;34.65;22.70;;;-0.50;99.90;;;;;;5035184;28;20478;-94
2023/02/10 05:41:50;;;;;;;39.40;23.90;;;-0.50;99.90;;;;;;5035382;28;20053;-94
2023/02/10 05:44:16;;;;;;;36.90;22.60;;;0.00;99.90;;;;;;5035061;28;20056;-94
2023/02/10 05:46:41;;;;;;;37.20;24.38;;;-0.80;99.90;;;;;;5018006;28;20040;-94
2023/02/10 05:49:07;;;;;;;37.53;24.17;;;-0.40;99.90;;;;;;5035585;28;20470;-94
2023/02/10 05:51:33;;;;;;;37.45;23.55;;;-0.60;99.90;;;;;;5035108;28;20489;-95
2023/02/10 05:53:58;;;;;;;39.72;24.65;;;-0.20;99.90;;;;;;5034143;28;20042;-94
2023/02/10 05:56:24;;;;;;;38.28;23.52;;;-0.90;99.90;;;;;;5017476;28;20038;-94
2023/02/10 05:58:50;;;;;;;39.92;24.33;;;-0.30;99.90;;;;;;5035023;28;20025;-94
2023/02/10 06:01:15;;;;;;;43.75;25.10;;;-0.60;99.90;;;;;;5034776;28;20029;-94
2023/02/10 06:03:41;;;;;;;42.42;26.23;;;-0.80;99.90;;;;;;5017701;28;20083;-94
2023/02/10 06:06:07;;;;;;;43.03;25.10;;;-0.80;99.90;;;;;;5017613;28;20035;-93
2023/02/10 06:08:32;;;;;;;39.40;25.15;;;-0.70;99.90;;;;;;5034483;28;20120;-94
2023/02/10 06:10:58;;;;;;;38.03;24.60;;;-0.70;99.90;;;;;;5017519;28;20037;-94
2023/02/10 06:13:24;;;;;;;40.03;24.65;;;-0.70;99.90;;;;;;5035071;28;20022;-94
2023/02/10 06:15:50;;;;;;;37.40;24.42;;;-0.80;99.90;;;;;;5034480;28;20025;-94
2023/02/10 06:18:15;;;;;;;39.70;25.33;;;-0.20;99.90;;;;;;5017505;28;20029;-94
2023/02/10 06:20:41;;;;;;;41.40;25.13;;;-0.60;99.90;;;;;;5034829;28;20025;-93
2023/02/10 06:23:07;;;;;;;44.40;25.58;;;-0.70;99.90;;;;;;5034995;28;20096;-94
2023/02/10 06:25:35;;;;;;;43.45;26.33;;;-0.90;99.90;;;;;;5035450;28;20417;-94
2023/02/10 06:28:01;;;;;;;41.55;25.63;;;-0.80;99.90;;;;;;5035184;28;20040;-94
2023/02/10 06:30:27;;;;;;;41.75;25.35;;;-0.90;99.90;;;;;;5035114;28;20045;-94
2023/02/10 06:32:53;;;;;;;40.38;26.02;;;-0.90;99.90;;;;;;5055941;28;20170;-94
2023/02/10 06:35:18;;;;;;;37.67;25.85;;;-0.90;99.90;;;;;;5059495;28;20029;-94
2023/02/10 06:37:44;;;;;;;46.28;26.33;;;-0.80;99.90;;;;;;5060514;28;20033;-93
2023/02/10 06:40:10;;;;;;;45.13;26.45;;;-0.80;99.90;;;;;;5040078;28;20025;-94
2023/02/10 06:42:36;;;;;;;43.45;27.05;;;-0.70;99.90;;;;;;5038942;28;20025;-94
2023/02/10 06:45:01;;;;;;;39.97;26.08;;;-0.90;99.90;;;;;;5037739;28;20029;-94
2023/02/10 06:47:27;;;;;;;41.95;25.52;;;-0.90;99.90;;;;;;5036441;28;20025;-94
2023/02/10 06:49:52;;;;;;;40.25;25.42;;;-0.90;99.90;;;;;;5036152;28;20025;-94
2023/02/10 06:52:18;;;;;;;44.58;26.63;;;-1.10;99.90;;;;;;5036498;28;20608;-94
2023/02/10 06:54:44;;;;;;;47.83;28.65;;;-1.10;99.90;;;;;;5047166;28;20496;-94
2023/02/10 06:57:10;;;;;;;45.60;28.15;;;-0.90;99.90;;;;;;5033902;28;20033;-94
2023/02/10 06:59:35;;;;;;;43.97;27.05;;;-0.60;99.90;;;;;;5015953;28;20159;-94
2023/02/10 07:02:02;;;;;;;43.25;26.15;;;-0.90;99.90;;;;;;5033089;28;20118;-95
2023/02/10 07:04:29;;;;;;;46.35;25.67;;;-0.60;99.90;;;;;;5033483;28;20418;-94
2023/02/10 07:06:56;;;;;;;40.65;25.10;;;-0.70;99.90;;;;;;5015959;28;20033;-95
2023/02/10 07:09:22;;;;;;;41.08;24.65;;;-0.80;99.90;;;;;;5033963;28;20414;-94
2023/02/10 07:11:48;;;;;;;42.10;24.67;;;-0.60;99.90;;;;;;5016376;28;20087;-95
2023/02/10 07:14:14;;;;;;;41.33;25.75;;;-0.40;99.90;;;;;;5016201;28;20018;-94
2023/02/10 07:16:39;;;;;;;43.60;24.98;;;-0.30;99.90;;;;;;5033516;28;20044;-94
2023/02/10 07:19:05;;;;;;;39.55;24.63;;;-0.60;99.90;;;;;;5015775;28;20026;-93
2023/02/10 07:21:31;;;;;;;40.05;26.40;;;0.10;99.90;;;;;;5033123;28;20029;-94
2023/02/10 07:23:56;;;;;;;49.50;29.80;;;0.30;99.90;;;;;;5033156;28;20072;-94
2023/02/10 07:26:23;;;;;;;61.25;38.15;;;0.00;99.90;;;;;;5016580;28;20470;-94
2023/02/10 07:28:49;;;;;;;46.05;27.55;;;-0.10;99.90;;;;;;5015947;28;20032;-93
2023/02/10 07:31:14;;;;;;;47.65;28.85;;;-0.30;99.90;;;;;;5037402;28;20045;-94
2023/02/10 07:33:40;;;;;;;44.67;27.95;;;0.00;99.90;;;;;;5036540;28;20553;-94
2023/02/10 07:36:07;;;;;;;47.33;27.52;;;-0.10;99.90;;;;;;5016021;28;20112;-85
2023/02/10 07:38:33;;;;;;;45.30;28.60;;;0.10;99.90;;;;;;5031912;28;20037;-86
2023/02/10 07:40:59;;;;;;;45.45;28.30;;;0.70;99.90;;;;;;5032356;28;20490;-86
2023/02/10 07:43:24;;;;;;;47.30;28.85;;;0.20;99.90;;;;;;5032020;28;20128;-85
2023/02/10 07:45:50;;;;;;;43.90;26.65;;;0.50;99.90;;;;;;5031605;28;20025;-86
2023/02/10 07:48:17;;;;;;;43.13;27.45;;;0.70;99.90;;;;;;5019115;28;20021;-86
2023/02/10 07:50:43;;;;;;;47.75;27.63;;;0.20;99.90;;;;;;5033320;28;20030;-85
2023/02/10 07:53:09;;;;;;;44.20;26.83;;;0.50;99.90;;;;;;5028119;28;20036;-88
2023/02/10 07:55:37;;;;;;;42.97;26.92;;;0.40;99.90;;;;;;5023916;28;20025;-86
2023/02/10 07:58:03;;;;;;;44.47;27.65;;;0.60;99.90;;;;;;5035948;28;20022;-85
2023/02/10 08:00:28;;;;;;;45.20;28.42;;;0.70;99.90;;;;;;5035483;28;20053;-85
2023/02/10 08:02:54;;;;;;;47.38;28.73;;;1.10;99.90;;;;;;5035009;28;20056;-85
2023/02/10 08:05:21;;;;;;;50.25;29.60;;;0.80;99.90;;;;;;5035532;28;20390;-85
2023/02/10 08:07:46;;;;;;;46.45;28.70;;;1.50;99.90;;;;;;5035415;28;20096;-85
2023/02/10 08:10:12;;;;;;;51.25;28.90;;;2.30;99.90;;;;;;5035771;28;20045;-85
2023/02/10 08:12:38;;;;;;;44.67;27.38;;;2.30;99.90;;;;;;5035435;28;20022;-85
2023/02/10 08:15:05;;;;;;;51.75;27.42;;;3.70;99.90;;;;;;5035342;28;20029;-85
2023/02/10 08:17:31;;;;;;;50.25;27.65;;;4.00;99.90;;;;;;5016971;28;20520;-85
2023/02/10 08:19:56;;;;;;;46.30;28.33;;;4.00;99.90;;;;;;5035693;28;20021;-85
2023/02/10 08:22:22;;;;;;;53.35;27.55;;;4.50;99.90;;;;;;5035100;28;20037;-85
2023/02/10 08:24:48;;;;;;;55.33;26.92;;;5.20;99.90;;;;;;5035443;28;20029;-85
2023/02/10 08:27:13;;;;;;;52.70;26.23;;;6.10;99.90;;;;;;5035178;28;20560;-85
2023/02/10 08:29:39;;;;;;;47.17;25.92;;;6.90;99.90;;;;;;5035000;28;20029;-85
2023/02/10 08:32:05;;;;;;;49.95;26.35;;;7.80;99.90;;;;;;5045048;28;20036;-86
2023/02/10 08:34:30;;;;;;;52.28;26.27;;;9.20;99.90;;;;;;5055322;28;20033;-85
2023/02/10 08:36:56;;;;;;;50.80;26.20;;;8.70;99.90;;;;;;5054189;28;20029;-85
2023/02/10 08:39:22;;;;;;;64.00;27.60;;;9.70;99.90;;;;;;5054854;28;20096;-85
2023/02/10 08:41:48;;;;;;;45.15;27.98;;;9.70;99.90;;;;;;5055089;28;20100;-86
2023/02/10 08:44:14;;;;;;;41.60;26.02;;;9.90;99.90;;;;;;5054730;28;20021;-86
2023/02/10 08:46:40;;;;;;;42.58;27.05;;;11.40;99.90;;;;;;5054374;28;20031;-86
2023/02/10 08:49:06;;;;;;;47.00;26.73;;;12.80;99.90;;;;;;5054483;28;20032;-85
2023/02/10 08:51:32;;;;;;;51.45;28.40;;;12.40;99.90;;;;;;5054505;28;20108;-85
2023/02/10 08:54:01;;;;;;;46.13;29.00;;;13.20;99.90;;;;;;5053961;28;20037;-85
2023/02/10 08:56:26;;;;;;;39.58;28.77;;;14.10;99.90;;;;;;5034800;28;20664;-85
2023/02/10 08:58:52;;;;;;;51.08;31.02;;;14.10;99.90;;;;;;5035020;28;20030;-86
2023/02/10 09:01:20;;;;;;;42.72;30.65;;;14.60;99.90;;;;;;5034088;28;20030;-85
2023/02/10 09:03:46;;;;;;;48.00;31.20;;;14.70;99.90;;;;;;5035093;28;20492;-85
2023/02/10 09:06:17;;;;;;;40.50;32.38;;;14.80;99.90;;;;;;5035123;28;20108;-86
2023/02/10 09:08:44;;;;;;;50.00;32.28;;;15.00;99.90;;;;;;5034467;28;20120;-85
2023/02/10 09:11:10;;;;;;;46.95;32.63;;;14.90;99.90;;;;;;5034218;28;20029;-85
2023/02/10 09:13:36;;;;;;;44.40;31.35;;;14.90;99.90;;;;;;5034030;28;20100;-85
2023/02/10 09:16:02;;;;;;;46.45;33.63;;;14.80;99.90;;;;;;5033616;28;20069;-86
2023/02/10 09:18:27;;;;;;;44.92;32.50;;;14.90;99.90;;;;;;5016390;28;20030;-86
2023/02/10 09:20:53;;;;;;;49.17;35.00;;;15.90;99.90;;;;;;5033944;28;20021;-86
2023/02/10 09:23:18;;;;;;;44.92;32.83;;;16.40;99.90;;;;;;5034064;28;20398;-86
2023/02/10 09:25:52;;;;;;;43.38;34.22;;;16.60;99.90;;;;;;5033870;28;20033;-86
2023/02/10 09:28:18;;;;;;;47.42;33.85;;;16.10;99.90;;;;;;5034291;28;20051;-85
2023/02/10 09:30:44;;;;;;;37.33;30.98;;;16.40;99.90;;;;;;5033331;28;20501;-86
2023/02/10 09:33:09;;;;;;;42.35;32.92;;;16.50;99.90;;;;;;5053538;28;20155;-85
2023/02/10 09:35:36;;;;;;;38.10;30.30;;;16.30;99.90;;;;;;5053924;28;20103;-86
2023/02/10 09:38:01;;;;;;;40.28;32.10;;;16.20;99.90;;;;;;5053613;28;20488;-85
2023/02/10 09:40:32;;;;;;;36.92;30.63;;;15.80;99.90;;;;;;5035816;28;20025;-86
2023/02/10 09:43:06;;;;;;;36.22;29.35;;;15.70;99.90;;;;;;5053541;28;20036;-86
2023/02/10 09:45:37;;;;;;;34.97;28.98;;;15.70;99.90;;;;;;5053733;28;20108;-86
2023/02/10 09:48:46;;;;;;;34.58;27.17;;;15.90;99.90;;;;;;5053945;28;20452;-86
2023/02/10 09:51:26;;;;;;;35.92;28.88;;;16.60;99.90;;;;;;4991845;28;20058;-86
2023/02/10 09:53:52;;;;;;;37.92;28.50;;;17.40;99.90;;;;;;4983264;28;20046;-86
2023/02/10 09:56:20;;;;;;;37.63;29.60;;;17.50;99.90;;;;;;4963783;28;20118;-86
2023/02/10 09:58:51;;;;;;;39.47;32.00;;;17.00;99.90;;;;;;4972506;28;20067;-86
2023/02/10 10:01:38;;;;;;;36.58;30.27;;;16.90;99.90;;;;;;4979017;28;20035;-86
2023/02/10 10:04:07;;;;;;;35.92;29.63;;;16.70;99.90;;;;;;4971734;28;20590;-87
2023/02/10 10:06:35;;;;;;;39.55;32.00;;;17.70;99.90;;;;;;4961830;28;20416;-85
2023/02/10 10:09:10;;;;;;;39.53;32.92;;;18.00;99.90;;;;;;4972044;28;20117;-88
2023/02/10 10:11:45;;;;;;;38.85;32.85;;;17.80;99.90;;;;;;4974103;28;20105;-86
2023/02/10 10:14:23;;;;;;;38.50;31.25;;;18.20;99.90;;;;;;4969514;28;20046;-85
2023/02/10 10:16:58;;;;;;;36.53;31.40;;;18.40;99.90;;;;;;4970298;28;20042;-85
2023/02/10 10:19:30;;;;;;;37.53;31.10;;;18.30;99.90;;;;;;4955449;28;20035;-85
2023/02/10 10:22:10;;;;;;;35.03;30.92;;;17.60;99.90;;;;;;4971510;28;20034;-85
2023/02/10 10:24:53;;;;;;;33.95;30.35;;;18.60;99.90;;;;;;4971310;28;20027;-86
2023/02/10 10:27:44;;;;;;;33.08;28.63;;;18.00;99.90;;;;;;5022231;28;20041;-86
2023/02/10 10:30:17;;;;;;;34.17;30.15;;;18.40;99.90;;;;;;5022006;28;20030;-86
2023/02/10 10:32:51;;;;;;;35.80;31.48;;;18.80;99.90;;;;;;5033901;28;20043;-84
2023/02/10 10:35:21;;;;;;;33.25;29.70;;;18.90;99.90;;;;;;5034027;28;20453;-84
2023/02/10 10:37:47;;;;;;;35.92;30.48;;;20.20;99.90;;;;;;5047752;28;20511;-85
2023/02/10 10:40:27;;;;;;;37.03;32.10;;;20.20;99.90;;;;;;5032251;28;20378;-84
2023/02/10 10:42:58;;;;;;;35.15;31.35;;;20.90;99.90;;;;;;5032436;28;20078;-85
2023/02/10 10:45:40;;;;;;;35.95;30.98;;;21.20;99.90;;;;;;5032639;28;20033;-86
2023/02/10 10:48:09;;;;;;;33.47;29.90;;;20.80;99.90;;;;;;5032209;28;20030;-85
2023/02/10 10:50:35;;;;;;;32.95;29.38;;;21.00;99.90;;;;;;5043425;28;20423;-87
2023/02/10 10:53:11;;;;;;;33.28;29.60;;;21.20;99.90;;;;;;5035574;28;20030;-85
2023/02/10 10:55:43;;;;;;;32.65;29.17;;;22.20;99.90;;;;;;5031984;28;20018;-85
2023/02/10 10:58:20;;;;;;;35.50;31.67;;;22.20;99.90;;;;;;5031916;28;20104;-85
2023/02/10 11:00:51;;;;;;;34.80;31.10;;;22.20;99.90;;;;;;5031210;28;20474;-86
2023/02/10 11:03:17;;;;;;;34.33;30.77;;;22.10;99.90;;;;;;5031756;28;20037;-86
2023/02/10 11:05:57;;;;;;;37.20;33.13;;;21.30;99.90;;;;;;5031867;28;20473;-85
2023/02/10 11:08:26;;;;;;;37.05;31.77;;;22.50;99.90;;;;;;5032287;28;20107;-85
2023/02/10 11:10:57;;;;;;;36.22;32.33;;;21.60;99.90;;;;;;5031582;28;20408;-84
2023/02/10 11:13:27;;;;;;;35.92;31.67;;;21.80;99.90;;;;;;5032563;28;20104;-85
2023/02/10 11:16:11;;;;;;;36.38;32.35;;;21.00;99.90;;;;;;5032090;28;20040;-86
2023/02/10 11:18:38;;;;;;;33.45;29.88;;;21.60;99.90;;;;;;5013333;28;20516;-87
2023/02/10 11:21:06;;;;;;;35.90;30.90;;;20.10;99.90;;;;;;5031931;28;20050;-86
2023/02/10 11:23:55;;;;;;;36.78;32.92;;;19.70;99.90;;;;;;5014491;28;20032;-87
2023/02/10 11:26:24;;;;;;;36.17;32.38;;;20.70;99.90;;;;;;5046236;28;20037;-84
2023/02/10 11:28:50;;;;;;;36.35;32.55;;;21.80;99.90;;;;;;5052692;28;20056;-84
2023/02/10 11:31:21;;;;;;;35.50;31.73;;;21.70;99.90;;;;;;5039461;28;20025;-85
2023/02/10 11:34:02;;;;;;;37.00;33.10;;;21.60;99.90;;;;;;5055959;28;20047;-85
2023/02/10 11:36:34;;;;;;;38.65;34.50;;;21.70;99.90;;;;;;5056103;28;20032;-85
2023/02/10 11:39:02;;;;;;;38.45;34.53;;;22.40;99.90;;;;;;5055970;28;20028;-84
2023/02/10 11:41:30;;;;;;;40.58;36.17;;;22.20;99.90;;;;;;5049515;28;20075;-85
2023/02/10 11:43:56;;;;;;;39.67;35.53;;;22.20;99.90;;;;;;5035037;28;20120;-91
2023/02/10 11:46:27;;;;;;;39.05;34.92;;;22.60;99.90;;;;;;5035699;28;20116;-89
2023/02/10 11:49:12;;;;;;;37.58;33.55;;;23.00;99.90;;;;;;5035844;28;20033;-90
2023/02/10 11:51:38;;;;;;;38.70;34.50;;;22.80;99.90;;;;;;5018421;28;20029;-90
2023/02/10 11:54:04;;;;;;;43.25;38.75;;;21.70;99.90;;;;;;5017565;28;20032;-88
2023/02/10 11:59:31;;;;;;;40.63;36.42;;;21.60;99.90;;;;;;5057360;28;20444;-93
2023/02/10 12:02:14;;;;;;;39.90;35.70;;;22.10;99.90;;;;;;5047899;28;20099;-87
2023/02/10 12:05:21;;;;;;;41.88;36.20;;;21.00;99.90;;;;;;5056317;28;20414;-87
2023/02/10 12:08:06;;;;;;;40.88;36.58;;;22.20;99.90;;;;;;4970807;28;20054;-88
2023/02/10 12:10:43;;;;;;;43.35;38.83;;;21.80;99.90;;;;;;4954683;28;20487;-88
2023/02/10 12:13:22;;;;;;;42.67;36.33;;;21.60;99.90;;;;;;4953723;28;20031;-87
2023/02/10 12:16:09;;;;;;;41.50;37.00;;;22.00;99.90;;;;;;4955472;28;20229;-90
2023/02/10 12:18:59;;;;;;;41.53;37.13;;;21.20;99.90;;;;;;4955525;28;20047;-86
2023/02/10 12:21:55;;;;;;;39.80;35.63;;;20.70;99.90;;;;;;4955259;28;20023;-87
2023/02/10 12:24:27;;;;;;;39.63;35.63;;;20.40;99.90;;;;;;4954907;28;20199;-87
2023/02/10 12:26:57;;;;;;;38.65;34.75;;;20.30;99.90;;;;;;4955244;28;20094;-86
2023/02/10 12:29:50;;;;;;;39.50;35.60;;;20.00;99.90;;;;;;4955242;28;20065;-87
2023/02/10 12:32:29;;;;;;;40.25;35.95;;;20.70;99.90;;;;;;4955005;28;20047;-86
2023/02/10 12:35:29;;;;;;;39.92;35.42;;;20.40;99.90;;;;;;4955159;28;20432;-87
2023/02/10 12:38:33;;;;;;;38.53;34.55;;;20.40;99.90;;;;;;4954253;28;20047;-87
2023/02/10 12:41:15;;;;;;;38.20;34.10;;;19.90;99.90;;;;;;4954892;28;20073;-87
2023/02/10 12:43:49;;;;;;;37.90;33.80;;;20.10;99.90;;;;;;5009462;28;20453;-87
2023/02/10 12:46:53;;;;;;;36.72;32.80;;;20.10;99.90;;;;;;5035077;28;20022;-86